< < Back
Terminal Aerodrome Forecast


Current Version              Previous Versions:   1  2  3  4  5  6  7  8  9  

Terminal Aerodrome Forecast

421
FTAK31 PAJN 260800 AAA
TAFAHN
TAF AMD
PAHN 260806Z 2608/2706 11005KT P6SM -RA FEW004 OVC015
      TEMPO 2608/2612 3SM RA BR OVC004
     FM261400 08006KT 4SM -RA BR SCT005 BKN015 OVC030
     FM262000 11008KT 6SM -RA BR SCT015 OVC030
      AMD LTD TO CLD VIS AND WIND=

Latest METAR

328
SAUS70 KWBC 261654
MTRAHN
METAR KAHN 261651Z 29003KT 10SM BKN047 30/18 A3006 RMK AO2 SLP170
T03000178


USA.gov is the U.S. government's official web portal to all federal, state and local government web resources and services.